Time;durP1;ratioP1;P1;durP2;ratioP2;P2;SDS_P1;SDS_P2;PMS_P1;PMS_P2;Temp;Humidity;BMP_temperature;BMP_pressure;BME280_temperature;BME280_humidity;BME280_pressure;Samples;Min_cycle;Max_cycle;Signal;HPM_P1;HPM_P2
2022/10/06 00:01:08;;;;;;;5.68;1.00;;;;;;;20.97;49.03;101605.34;2085898;28;20044;-76
2022/10/06 00:02:35;;;;;;;5.03;0.80;;;;;;;20.95;49.16;101599.09;2098523;28;20535;-76
2022/10/06 00:03:56;;;;;;;6.57;1.42;;;;;;;20.96;49.17;101605.34;2095704;28;20064;-76
2022/10/06 00:05:19;;;;;;;5.85;1.42;;;;;;;20.91;49.40;101599.16;2093991;28;20048;-76
2022/10/06 00:06:41;;;;;;;7.38;1.40;;;;;;;20.89;49.27;101609.03;2088019;28;20048;-75
2022/10/06 00:08:04;;;;;;;5.97;0.80;;;;;;;20.90;49.14;101597.38;2091097;28;20132;-76
2022/10/06 00:09:27;;;;;;;2.67;0.82;;;;;;;20.91;49.06;101599.16;2090406;28;20378;-75
2022/10/06 00:10:48;;;;;;;8.32;1.20;;;;;;;20.94;48.77;101589.25;2084899;28;20070;-77
2022/10/06 00:12:11;;;;;;;5.93;1.02;;;;;;;20.97;48.59;101594.59;2082367;28;20048;-76
2022/10/06 00:13:33;;;;;;;5.88;1.20;;;;;;;20.99;48.16;101589.22;2090943;28;20589;-76
2022/10/06 00:14:56;;;;;;;6.72;0.98;;;;;;;21.01;48.12;101582.91;2093823;28;20098;-76
2022/10/06 00:16:22;;;;;;;7.88;0.98;;;;;;;21.01;48.09;101587.38;2093232;28;20041;-76
2022/10/06 00:17:44;;;;;;;8.98;1.38;;;;;;;20.96;48.15;101586.56;2092777;28;20132;-76
2022/10/06 00:19:07;;;;;;;8.90;1.42;;;;;;;20.93;48.24;101587.50;2085093;28;20086;-76
2022/10/06 00:20:28;;;;;;;5.45;0.95;;;;;;;20.91;48.20;101583.94;2093041;28;20052;-76
2022/10/06 00:21:51;;;;;;;4.80;0.93;;;;;;;20.90;48.11;101584.84;2093895;28;20044;-76
2022/10/06 00:23:13;;;;;;;2.33;1.08;;;;;;;20.90;48.10;101581.28;2093909;28;20424;-76
2022/10/06 00:24:35;;;;;;;5.72;1.90;;;;;;;20.88;48.01;101585.78;2083761;28;20413;-76
2022/10/06 00:25:59;;;;;;;7.07;1.25;;;;;;;20.89;47.96;101576.81;2090455;28;20080;-76
2022/10/06 00:27:20;;;;;;;5.85;1.20;;;;;;;20.90;47.86;101584.84;2080979;28;20049;-77
2022/10/06 00:28:44;;;;;;;6.57;1.05;;;;;;;20.92;47.68;101577.69;2092892;28;20052;-76
2022/10/06 00:30:09;;;;;;;3.80;0.90;;;;;;;20.95;47.72;101574.03;2093675;28;20041;-76
2022/10/06 00:31:33;;;;;;;3.70;1.00;;;;;;;20.96;47.87;101589.25;2088110;28;20048;-76
2022/10/06 00:32:56;;;;;;;6.65;1.00;;;;;;;20.92;47.89;101575.00;2093694;28;20144;-77
2022/10/06 00:34:20;;;;;;;7.15;1.00;;;;;;;20.88;47.90;101567.88;2093148;28;20072;-76
2022/10/06 00:35:42;;;;;;;7.65;1.13;;;;;;;20.84;48.21;101573.31;2093125;28;20059;-76
2022/10/06 00:37:05;;;;;;;6.10;1.25;;;;;;;20.80;48.40;101569.81;2101381;28;20491;-76
2022/10/06 00:38:26;;;;;;;4.55;0.80;;;;;;;20.79;48.11;101569.81;2088183;28;20126;-76
2022/10/06 00:39:49;;;;;;;5.97;0.90;;;;;;;20.77;48.46;101569.81;2092254;28;20593;-76
2022/10/06 00:41:12;;;;;;;4.53;0.80;;;;;;;20.76;48.51;101570.72;2092429;28;20044;-76
2022/10/06 00:42:35;;;;;;;5.30;1.08;;;;;;;20.75;48.44;101570.75;2085644;28;20083;-76
2022/10/06 00:43:59;;;;;;;4.43;0.80;;;;;;;20.76;48.55;101572.53;2098911;28;20384;-77
2022/10/06 00:45:28;;;;;;;6.65;1.00;;;;;;;20.75;48.67;101579.69;2087015;28;20045;-76
2022/10/06 00:46:53;;;;;;;5.68;1.00;;;;;;;20.75;48.69;101576.09;2084579;28;20686;-76
2022/10/06 00:48:18;;;;;;;2.97;0.70;;;;;;;20.74;48.50;101574.34;2083421;28;20045;-76
2022/10/06 00:49:41;;;;;;;2.88;0.55;;;;;;;20.70;48.52;101573.50;2090906;28;20050;-77
2022/10/06 00:51:03;;;;;;;5.72;0.98;;;;;;;20.68;48.71;101568.13;2085191;28;20597;-76
2022/10/06 00:52:29;;;;;;;6.05;1.00;;;;;;;20.67;48.46;101563.72;2098503;28;20040;-76
2022/10/06 00:53:50;;;;;;;3.60;0.80;;;;;;;20.67;48.20;101565.50;2087012;28;20510;-75
2022/10/06 00:55:14;;;;;;;6.30;1.10;;;;;;;20.67;48.32;101573.56;2091025;28;20147;-76
2022/10/06 00:56:39;;;;;;;7.55;1.02;;;;;;;20.68;48.42;101570.81;2085381;28;20115;-77
2022/10/06 00:58:01;;;;;;;5.03;1.05;;;;;;;20.67;48.45;101569.06;2084824;28;20386;-76
2022/10/06 00:59:23;;;;;;;6.25;1.13;;;;;;;20.67;48.51;101565.50;2099364;28;20044;-76
2022/10/06 01:00:46;;;;;;;2.85;0.73;;;;;;;20.66;48.50;101569.97;2087999;28;20505;-76
2022/10/06 01:02:15;;;;;;;3.95;0.70;;;;;;;20.65;48.51;101562.84;2093758;28;20131;-76
2022/10/06 01:03:40;;;;;;;6.43;0.98;;;;;;;20.61;48.42;101560.22;2079944;28;20128;-75
2022/10/06 01:05:05;;;;;;;8.75;1.25;;;;;;;20.56;48.67;101564.72;2083022;28;20103;-75
2022/10/06 01:06:28;;;;;;;3.78;0.95;;;;;;;20.52;48.82;101560.31;2083062;28;20148;-76
2022/10/06 01:07:49;;;;;;;2.97;0.77;;;;;;;20.49;48.83;101560.34;2081418;28;20060;-76
2022/10/06 01:09:13;;;;;;;6.68;0.85;;;;;;;20.47;48.67;101560.38;2099046;28;20048;-75
2022/10/06 01:10:35;;;;;;;4.30;0.82;;;;;;;20.47;48.65;101565.75;2095377;28;20047;-75
2022/10/06 01:12:01;;;;;;;4.78;0.70;;;;;;;20.45;48.72;101559.50;2093666;28;20415;-75
2022/10/06 01:13:26;;;;;;;3.63;1.00;;;;;;;20.43;48.59;101550.59;2076166;28;20445;-75
2022/10/06 01:14:48;;;;;;;3.63;0.82;;;;;;;20.40;48.59;101558.69;2096137;28;20094;-75
2022/10/06 01:16:17;;;;;;;4.88;0.80;;;;;;;20.40;48.24;101558.69;2087368;28;20061;-76
2022/10/06 01:17:46;;;;;;;4.95;0.90;;;;;;;20.37;48.28;101557.81;2075728;28;20164;-75
2022/10/06 01:19:18;;;;;;;6.35;0.98;;;;;;;20.34;48.23;101556.06;2098733;28;20062;-75
2022/10/06 01:20:45;;;;;;;3.78;0.80;;;;;;;20.28;48.34;101545.38;2087300;28;20045;-76
2022/10/06 01:22:09;;;;;;;3.70;0.70;;;;;;;20.26;48.10;101553.44;2100154;28;20048;-75
2022/10/06 01:23:35;;;;;;;7.28;1.00;;;;;;;20.27;48.25;101547.19;2080655;28;20095;-76
2022/10/06 01:24:57;;;;;;;9.05;1.50;;;;;;;20.26;48.34;101549.88;2093093;28;20734;-76
2022/10/06 01:26:23;;;;;;;6.97;1.00;;;;;;;20.26;48.45;101544.50;2101167;28;20150;-76
2022/10/06 01:27:50;;;;;;;3.33;0.93;;;;;;;20.26;48.78;101545.41;2095338;28;20045;-75
2022/10/06 01:29:13;;;;;;;5.55;1.05;;;;;;;20.28;48.95;101545.38;2087064;28;20052;-76
2022/10/06 01:30:42;;;;;;;5.40;1.35;;;;;;;20.30;49.22;101531.03;2095119;28;20484;-78
2022/10/06 01:32:03;;;;;;;4.10;0.70;;;;;;;20.31;49.26;101534.59;2087552;28;20695;-79
2022/10/06 01:33:26;;;;;;;;;;;;;;;20.28;49.13;101535.53;2087428;28;20118;-80
2022/10/06 01:34:48;;;;;;;8.18;1.17;;;;;;;20.27;49.09;101524.84;2083553;28;19927;-79
2022/10/06 01:36:10;;;;;;;4.30;0.93;;;;;;;20.28;48.86;101540.03;2092415;28;20083;-79
2022/10/06 01:37:32;;;;;;;6.72;1.30;;;;;;;20.26;48.67;101542.72;2085530;28;20045;-79
2022/10/06 01:38:55;;;;;;;5.32;0.90;;;;;;;20.24;48.75;101543.63;2099778;28;20086;-78
2022/10/06 01:40:18;;;;;;;4.30;0.93;;;;;;;20.19;48.68;101538.31;2096013;28;20063;-79
2022/10/06 01:41:39;;;;;;;2.83;1.00;;;;;;;20.17;48.65;101531.19;2089260;28;20115;-79
2022/10/06 01:43:02;;;;;;;5.78;1.63;;;;;;;20.14;48.64;101534.81;2088850;28;20057;-79
2022/10/06 01:44:24;;;;;;;8.18;1.27;;;;;;;20.12;48.45;101525.00;2084051;28;20044;-79
2022/10/06 01:45:52;;;;;;;6.47;0.90;;;;;;;20.12;48.32;101519.66;2083378;28;20051;-78
2022/10/06 01:47:13;;;;;;;5.05;1.13;;;;;;;20.13;48.33;101521.44;2086941;28;20056;-79
2022/10/06 01:48:36;;;;;;;5.80;0.85;;;;;;;20.15;48.20;101522.31;2092214;28;20052;-79
2022/10/06 01:49:58;;;;;;;3.08;0.90;;;;;;;20.17;48.11;101517.78;2093950;28;20053;-79
2022/10/06 01:51:21;;;;;;;8.43;1.80;;;;;;;20.21;48.09;101524.91;2084613;28;20094;-78
2022/10/06 01:52:44;;;;;;;4.55;0.95;;;;;;;20.22;48.22;101522.19;2083817;28;20045;-78
2022/10/06 01:54:06;;;;;;;2.97;0.93;;;;;;;20.23;48.40;101521.28;2098362;28;20043;-78
2022/10/06 01:55:29;;;;;;;4.60;0.90;;;;;;;20.25;48.88;101521.28;2080654;28;20465;-77
2022/10/06 01:56:54;;;;;;;5.65;1.50;;;;;;;20.25;49.03;101519.47;2094539;28;20109;-78
2022/10/06 01:58:17;;;;;;;5.35;1.25;;;;;;;20.25;49.25;101515.91;2087978;28;20151;-78
2022/10/06 01:59:40;;;;;;;5.40;1.45;;;;;;;20.22;49.28;101511.47;2091905;28;20052;-78
2022/10/06 02:01:06;;;;;;;6.18;1.00;;;;;;;20.23;49.40;101512.34;2086470;28;20052;-78
2022/10/06 02:02:31;;;;;;;3.83;0.80;;;;;;;20.26;49.32;101501.59;2092302;28;20071;-77
2022/10/06 02:03:54;;;;;;;4.88;0.88;;;;;;;20.30;49.00;101508.69;2095435;28;20473;-78
2022/10/06 02:05:16;;;;;;;4.13;0.90;;;;;;;20.36;48.99;101515.81;2094036;28;20151;-79
2022/10/06 02:06:41;;;;;;;4.93;0.95;;;;;;;20.37;48.68;101505.06;2093400;28;20130;-77
2022/10/06 02:08:04;;;;;;;6.70;1.90;;;;;;;20.35;48.60;101517.59;2081086;28;20490;-76
2022/10/06 02:09:29;;;;;;;3.58;0.70;;;;;;;20.34;48.27;101501.53;2086833;28;20053;-76
2022/10/06 02:10:52;;;;;;;4.32;0.80;;;;;;;20.29;48.18;101520.31;2096568;28;20048;-76
2022/10/06 02:12:18;;;;;;;3.65;1.08;;;;;;;20.23;47.89;101513.25;2082278;28;20083;-75
2022/10/06 02:13:41;;;;;;;3.95;1.08;;;;;;;20.20;47.76;101515.97;2083712;28;20045;-77
2022/10/06 02:15:05;;;;;;;4.88;1.35;;;;;;;20.18;47.45;101514.22;2078451;28;20140;-76
2022/10/06 02:16:26;;;;;;;2.75;0.90;;;;;;;20.16;47.23;101516.00;2076037;28;20049;-76
2022/10/06 02:17:49;;;;;;;3.40;0.70;;;;;;;20.12;47.25;101508.91;2078726;28;20147;-75
2022/10/06 02:19:11;;;;;;;3.90;1.00;;;;;;;20.09;46.99;101515.19;2083548;28;20048;-75
2022/10/06 02:20:33;;;;;;;2.90;0.77;;;;;;;20.07;46.85;101514.34;2091506;28;20500;-76
2022/10/06 02:21:57;;;;;;;6.68;1.25;;;;;;;20.03;46.94;101507.22;2094775;28;20041;-76
2022/10/06 02:23:18;;;;;;;3.05;0.80;;;;;;;20.04;47.13;101505.44;2102804;28;20065;-75
2022/10/06 02:24:42;;;;;;;2.88;0.80;;;;;;;20.04;47.51;101510.78;2096665;28;20132;-76
2022/10/06 02:26:05;;;;;;;5.53;1.00;;;;;;;20.03;47.81;101507.22;2086157;28;20049;-76
2022/10/06 02:27:29;;;;;;;5.88;1.10;;;;;;;20.03;48.17;101509.00;2076170;28;20041;-76
2022/10/06 02:28:52;;;;;;;4.10;1.33;;;;;;;20.02;48.32;101494.72;2082559;28;20052;-76
2022/10/06 02:30:18;;;;;;;4.93;1.00;;;;;;;20.04;48.70;101506.31;2084909;28;20102;-76
2022/10/06 02:31:41;;;;;;;5.78;1.38;;;;;;;20.05;48.92;101502.75;2084410;28;20037;-77
2022/10/06 02:33:03;;;;;;;7.53;1.00;;;;;;;20.06;48.90;101511.66;2086891;28;20077;-76
2022/10/06 02:34:26;;;;;;;5.53;0.90;;;;;;;20.06;48.99;101507.19;2085992;28;20106;-76
2022/10/06 02:35:54;;;;;;;;;;;;;;;20.02;49.38;101500.06;2082217;28;20105;-76
2022/10/06 02:37:16;;;;;;;3.35;1.10;;;;;;;20.04;49.29;101497.38;2084576;28;19980;-76
2022/10/06 02:38:38;;;;;;;2.67;1.27;;;;;;;20.09;49.63;101484.81;2091284;28;20128;-78
2022/10/06 02:40:05;;;;;;;6.30;1.80;;;;;;;20.12;49.70;101495.50;2080366;28;20053;-76
2022/10/06 02:41:27;;;;;;;3.97;0.90;;;;;;;20.13;49.71;101499.97;2094646;28;20044;-77
2022/10/06 02:42:49;;;;;;;5.65;1.30;;;;;;;20.14;49.66;101494.59;2093918;28;20044;-77
2022/10/06 02:44:13;;;;;;;5.43;1.17;;;;;;;20.14;49.80;101499.06;2086730;28;20118;-76
2022/10/06 02:45:38;;;;;;;6.43;1.05;;;;;;;20.14;49.81;101499.97;2085522;28;20041;-76
2022/10/06 02:47:01;;;;;;;5.45;1.00;;;;;;;20.17;49.78;101491.88;2091199;28;20052;-77
2022/10/06 02:48:23;;;;;;;5.97;1.42;;;;;;;20.20;49.92;101502.56;2093736;28;20084;-76
2022/10/06 02:49:46;;;;;;;5.65;1.33;;;;;;;20.21;50.00;101482.91;2078108;28;20041;-75
2022/10/06 02:51:12;;;;;;;5.15;1.13;;;;;;;20.23;50.28;101478.38;2085161;28;20190;-76
2022/10/06 02:52:35;;;;;;;6.97;1.33;;;;;;;20.25;50.52;101489.09;2092743;28;20551;-76
2022/10/06 02:53:58;;;;;;;6.05;1.30;;;;;;;20.23;50.79;101485.53;2087859;28;20065;-77
2022/10/06 02:55:21;;;;;;;7.22;1.52;;;;;;;20.23;50.68;101486.44;2085615;28;20052;-76
2022/10/06 02:56:44;;;;;;;4.82;1.38;;;;;;;20.23;50.73;101488.22;2083368;28;20053;-76
2022/10/06 02:58:05;;;;;;;3.70;1.17;;;;;;;20.25;50.68;101481.06;2085455;28;20489;-76
2022/10/06 02:59:28;;;;;;;4.85;1.10;;;;;;;20.27;50.77;101479.25;2074966;28;20037;-76
2022/10/06 03:00:49;;;;;;;5.07;1.08;;;;;;;20.33;50.63;101479.19;2079472;28;20048;-76
2022/10/06 03:02:12;;;;;;;6.80;1.52;;;;;;;20.36;50.79;101483.63;2082286;28;20071;-76
2022/10/06 03:03:34;;;;;;;7.57;1.40;;;;;;;20.41;50.71;101490.72;2090986;28;20551;-76
2022/10/06 03:04:57;;;;;;;5.63;1.30;;;;;;;20.43;50.76;101483.53;2093868;28;20649;-76
2022/10/06 03:06:23;;;;;;;2.72;0.98;;;;;;;20.46;50.95;101472.75;2096810;28;20135;-76
2022/10/06 03:08:05;;;;;;;5.03;1.10;;;;;;;20.43;50.82;101480.84;2092228;28;20048;-76
2022/10/06 03:09:28;;;;;;;9.07;1.10;;;;;;;20.39;50.97;101471.06;2093907;28;20128;-76
2022/10/06 03:10:59;;;;;;;4.22;1.00;;;;;;;20.36;50.98;101479.16;2084411;28;20075;-76
2022/10/06 03:12:21;;;;;;;6.53;1.75;;;;;;;20.30;50.95;101477.41;2101869;28;20040;-76
2022/10/06 03:13:43;;;;;;;5.60;1.13;;;;;;;20.29;50.93;101488.13;2079572;28;20053;-76
2022/10/06 03:15:07;;;;;;;4.72;1.17;;;;;;;20.27;50.91;101480.13;2078243;28;20043;-77
2022/10/06 03:16:30;;;;;;;9.52;1.40;;;;;;;20.28;51.03;101479.19;2082755;28;20071;-76
2022/10/06 03:17:57;;;;;;;4.60;1.02;;;;;;;20.28;50.97;101486.38;2084055;28;20139;-76
2022/10/06 03:19:20;;;;;;;4.60;1.25;;;;;;;20.28;50.89;101481.03;2083677;28;20447;-76
2022/10/06 03:20:42;;;;;;;7.18;1.52;;;;;;;20.28;50.84;101478.34;2083543;28;20052;-76
2022/10/06 03:22:04;;;;;;;4.97;0.95;;;;;;;20.30;50.80;101476.50;2083134;28;20053;-76
2022/10/06 03:23:35;;;;;;;;;;;;;;;20.29;50.57;101478.31;2086224;28;20080;-76
2022/10/06 03:24:58;;;;;;;7.28;1.75;;;;;;;20.34;50.40;101485.47;2085935;28;20355;-76
2022/10/06 03:26:26;;;;;;;5.57;0.90;;;;;;;20.39;50.36;101487.16;2090443;28;20098;-76
2022/10/06 03:27:48;;;;;;;4.45;1.52;;;;;;;20.41;50.44;101485.34;2094230;28;20094;-76
2022/10/06 03:29:10;;;;;;;6.53;1.52;;;;;;;20.44;50.80;101476.38;2092849;28;20089;-76
2022/10/06 03:30:35;;;;;;;4.95;1.33;;;;;;;20.48;50.71;101470.06;2094270;28;20044;-77
2022/10/06 03:31:57;;;;;;;5.38;1.40;;;;;;;20.52;50.76;101493.25;2086186;28;20493;-77
2022/10/06 03:33:21;;;;;;;8.90;1.30;;;;;;;20.52;51.07;101478.03;2090201;28;20052;-76
2022/10/06 03:34:43;;;;;;;5.95;1.20;;;;;;;20.51;51.18;101476.25;2093871;28;20048;-77
2022/10/06 03:36:11;;;;;;;7.25;1.20;;;;;;;20.50;50.86;101471.81;2090584;28;20051;-76
2022/10/06 03:37:34;;;;;;;6.70;1.50;;;;;;;20.49;50.87;101472.72;2083241;28;20548;-75
2022/10/06 03:38:56;;;;;;;6.18;1.08;;;;;;;20.48;50.64;101487.03;2082041;28;20397;-76
2022/10/06 03:40:19;;;;;;;7.82;1.40;;;;;;;20.48;50.72;101481.66;2085314;28;20589;-76
2022/10/06 03:41:43;;;;;;;5.13;1.25;;;;;;;20.49;50.87;101480.75;2082515;28;20049;-76
2022/10/06 03:43:08;;;;;;;4.43;1.13;;;;;;;20.49;51.13;101478.06;2086943;28;20047;-76
2022/10/06 03:44:33;;;;;;;8.00;1.50;;;;;;;20.45;51.30;101476.34;2082065;28;20044;-75
2022/10/06 03:45:56;;;;;;;6.30;1.20;;;;;;;20.41;51.60;101476.41;2091197;28;20041;-76
2022/10/06 03:47:19;;;;;;;7.13;1.20;;;;;;;20.38;51.42;101480.03;2085067;28;20091;-76
2022/10/06 03:48:41;;;;;;;6.95;1.45;;;;;;;20.36;51.55;101463.06;2084505;28;20064;-77
2022/10/06 03:50:04;;;;;;;;;;;;;;;20.32;51.60;101472.03;2088648;28;20048;-76
2022/10/06 03:51:28;;;;;;;7.95;1.20;;;;;;;20.32;51.50;101474.69;2083731;28;19928;-76
2022/10/06 03:52:52;;;;;;;11.32;3.63;;;;;;;20.29;51.35;101472.03;2083579;28;20583;-76
2022/10/06 03:54:14;;;;;;;5.07;1.10;;;;;;;20.28;51.29;101472.97;2082245;28;20128;-75
2022/10/06 03:55:38;;;;;;;6.32;1.42;;;;;;;20.26;51.17;101456.91;2082669;28;20147;-77
2022/10/06 03:57:02;;;;;;;5.53;1.50;;;;;;;20.25;51.26;101462.28;2090532;28;20436;-77
2022/10/06 03:58:25;;;;;;;5.88;1.35;;;;;;;20.23;51.51;101459.63;2084422;28;20045;-75
2022/10/06 03:59:47;;;;;;;4.32;1.20;;;;;;;20.23;51.88;101464.09;2082019;28;20048;-77
2022/10/06 04:01:12;;;;;;;5.45;1.20;;;;;;;20.20;51.88;101465.03;2085341;28;20045;-77
2022/10/06 04:02:34;;;;;;;5.63;1.10;;;;;;;20.19;52.03;101470.41;2083533;28;20041;-77
2022/10/06 04:03:57;;;;;;;9.27;1.30;;;;;;;20.19;51.94;101467.72;2079704;28;20268;-77
2022/10/06 04:05:20;;;;;;;7.65;1.33;;;;;;;20.16;52.05;101471.31;2082513;28;20053;-77
2022/10/06 04:06:44;;;;;;;7.38;1.50;;;;;;;20.15;52.09;101469.53;2093695;28;20052;-77
2022/10/06 04:08:09;;;;;;;7.40;1.80;;;;;;;20.13;52.31;101462.44;2087784;28;20041;-77
2022/10/06 04:09:31;;;;;;;5.80;1.23;;;;;;;20.11;52.51;101469.59;2090110;28;20041;-76
2022/10/06 04:10:53;;;;;;;4.20;1.23;;;;;;;20.10;52.38;101468.72;2083911;28;20041;-76
2022/10/06 04:12:17;;;;;;;6.75;1.40;;;;;;;20.12;52.25;101474.94;2081588;28;20049;-76
2022/10/06 04:13:40;;;;;;;6.82;1.65;;;;;;;20.14;52.46;101470.47;2091221;28;20051;-76
2022/10/06 04:15:02;;;;;;;8.32;1.30;;;;;;;20.14;52.40;101470.47;2092655;28;20144;-76
2022/10/06 04:16:25;;;;;;;7.00;1.77;;;;;;;20.16;52.59;101470.44;2084378;28;20044;-75
2022/10/06 04:17:48;;;;;;;10.05;1.77;;;;;;;20.15;52.28;101477.56;2082177;28;20049;-76
2022/10/06 04:19:11;;;;;;;4.93;1.20;;;;;;;20.15;52.36;101482.94;2089842;28;20068;-75
2022/10/06 04:20:39;;;;;;;6.38;1.52;;;;;;;20.14;51.97;101481.19;2086054;28;20106;-75
2022/10/06 04:22:01;;;;;;;6.05;1.58;;;;;;;20.14;51.88;101473.16;2082718;28;20143;-76
2022/10/06 04:23:24;;;;;;;8.43;1.48;;;;;;;20.15;51.86;101472.22;2074731;28;20050;-76
2022/10/06 04:24:47;;;;;;;6.93;1.27;;;;;;;20.14;51.50;101481.19;2077558;28;20052;-76
2022/10/06 04:26:11;;;;;;;5.20;1.13;;;;;;;20.14;51.28;101473.16;2082347;28;20057;-75
2022/10/06 04:27:35;;;;;;;5.65;0.93;;;;;;;20.15;50.97;101477.56;2083106;28;20045;-76
2022/10/06 04:29:03;;;;;;;8.15;1.00;;;;;;;20.15;50.98;101477.56;2081938;28;20139;-76
2022/10/06 04:30:26;;;;;;;6.45;1.10;;;;;;;20.15;50.87;101479.41;2097635;28;20469;-76
2022/10/06 04:31:49;;;;;;;5.47;1.75;;;;;;;20.20;51.02;101474.88;2079615;28;20084;-76
2022/10/06 04:33:15;;;;;;;9.00;1.30;;;;;;;20.26;51.00;101485.50;2091349;28;20055;-76
2022/10/06 04:34:38;;;;;;;7.80;1.20;;;;;;;20.28;51.32;101470.31;2085116;28;20045;-76
2022/10/06 04:36:01;;;;;;;2.58;1.00;;;;;;;20.28;51.25;101487.25;2090739;28;20048;-76
2022/10/06 04:37:24;;;;;;;5.10;1.25;;;;;;;20.28;51.29;101464.94;2084716;28;20068;-76
2022/10/06 04:38:45;;;;;;;5.95;1.40;;;;;;;20.27;51.49;101466.72;2087059;28;20082;-75
2022/10/06 04:40:09;;;;;;;6.47;1.00;;;;;;;20.27;51.27;101473.88;2083865;28;20049;-75
2022/10/06 04:41:34;;;;;;;5.72;1.27;;;;;;;20.28;51.42;101471.16;2080862;28;20048;-77
2022/10/06 04:42:58;;;;;;;8.57;1.10;;;;;;;20.32;51.11;101482.75;2084183;28;20048;-76
2022/10/06 04:44:21;;;;;;;5.30;1.58;;;;;;;20.33;51.16;101473.84;2083704;28;20044;-75
2022/10/06 04:45:44;;;;;;;5.20;1.02;;;;;;;20.35;51.06;101474.69;2088397;28;20060;-77
2022/10/06 04:47:07;;;;;;;4.20;1.02;;;;;;;20.36;51.23;101480.94;2084900;28;20489;-74
2022/10/06 04:48:30;;;;;;;4.90;1.27;;;;;;;20.36;51.25;101478.25;2082524;28;20048;-76
2022/10/06 04:49:52;;;;;;;6.38;1.48;;;;;;;20.35;51.09;101484.56;2082731;28;20084;-77
2022/10/06 04:51:15;;;;;;;7.05;1.23;;;;;;;20.36;51.39;101484.50;2083445;28;20053;-76
2022/10/06 04:52:38;;;;;;;5.18;1.17;;;;;;;20.37;51.22;101488.97;2081592;28;20053;-77
2022/10/06 04:54:01;;;;;;;7.07;1.40;;;;;;;20.39;51.24;101484.47;2084867;28;20057;-77
2022/10/06 04:55:28;;;;;;;7.95;1.23;;;;;;;20.42;51.53;101470.13;2087253;28;20064;-76
2022/10/06 04:56:51;;;;;;;8.20;1.60;;;;;;;20.48;51.56;101489.69;2072730;28;20477;-76
2022/10/06 04:58:18;;;;;;;8.60;1.98;;;;;;;20.58;51.45;101501.22;2080958;28;20071;-76
2022/10/06 05:01:23;;;;;;;7.85;1.33;;;;;;;20.74;51.35;101488.47;2086701;28;20187;-77
2022/10/06 05:02:45;;;;;;;9.90;1.63;;;;;;;20.77;51.39;101499.16;2085278;28;20060;-77
2022/10/06 05:04:08;;;;;;;6.65;1.52;;;;;;;20.78;51.48;101488.41;2077558;28;20056;-76
2022/10/06 05:05:30;;;;;;;6.63;1.58;;;;;;;20.81;51.26;101484.75;2075252;28;20053;-76
2022/10/06 05:06:52;;;;;;;;;;;;;;;20.89;51.11;101493.59;2084307;28;20045;-77
2022/10/06 05:08:15;;;;;;;5.85;1.60;;;;;;;21.03;50.55;101495.16;2084519;28;20027;-77
2022/10/06 05:09:38;;;;;;;5.45;1.02;;;;;;;21.20;49.96;101499.44;2095736;28;20032;-76
2022/10/06 05:11:01;;;;;;;7.97;1.52;;;;;;;21.25;49.68;101490.38;2095881;28;20206;-76
2022/10/06 05:12:24;;;;;;;7.53;1.00;;;;;;;21.23;49.63;101496.69;2085931;28;20053;-76
2022/10/06 05:13:51;;;;;;;6.97;1.15;;;;;;;21.15;49.54;101483.34;2091728;28;20135;-76
2022/10/06 05:15:13;;;;;;;6.65;0.90;;;;;;;21.06;49.34;101503.19;2086202;28;20382;-77
2022/10/06 05:16:37;;;;;;;5.20;1.10;;;;;;;21.04;49.28;101498.75;2086661;28;20102;-76
2022/10/06 05:18:00;;;;;;;5.10;1.10;;;;;;;21.09;49.16;101504.91;2086573;28;20048;-77
2022/10/06 05:19:21;;;;;;;5.25;1.25;;;;;;;21.21;49.24;101502.06;2077859;28;20053;-77
2022/10/06 05:20:44;;;;;;;3.55;0.80;;;;;;;21.27;49.18;101490.34;2092082;28;20658;-77
2022/10/06 05:22:05;;;;;;;6.70;1.10;;;;;;;21.25;49.17;101486.81;2088767;28;20053;-76
2022/10/06 05:23:29;;;;;;;5.15;1.13;;;;;;;21.20;49.35;101488.69;2085168;28;20772;-77
2022/10/06 05:24:52;;;;;;;3.45;1.23;;;;;;;21.13;49.50;101493.25;2084048;28;20049;-77
2022/10/06 05:26:17;;;;;;;6.43;1.20;;;;;;;21.09;49.78;101500.44;2091675;28;20036;-76
2022/10/06 05:27:40;;;;;;;8.07;1.15;;;;;;;21.08;49.88;101509.41;2081170;28;20057;-76
2022/10/06 05:29:03;;;;;;;6.72;1.30;;;;;;;21.14;49.91;101502.16;2083817;28;20048;-77
2022/10/06 05:30:26;;;;;;;8.18;1.23;;;;;;;21.18;49.75;101512.00;2083851;28;20053;-76
2022/10/06 05:31:47;;;;;;;9.20;1.30;;;;;;;21.23;49.69;101516.38;2085759;28;20579;-77
2022/10/06 05:33:11;;;;;;;4.80;1.10;;;;;;;21.26;49.49;101524.41;2084985;28;20053;-77
2022/10/06 05:34:34;;;;;;;6.95;1.27;;;;;;;21.30;49.40;101518.03;2089202;28;20106;-77
2022/10/06 05:35:57;;;;;;;5.72;1.20;;;;;;;21.34;49.27;101508.13;2093347;28;20053;-77
2022/10/06 05:37:19;;;;;;;7.75;1.35;;;;;;;21.37;49.38;101516.16;2090331;28;20472;-77
2022/10/06 05:38:42;;;;;;;8.63;1.38;;;;;;;21.41;49.56;101518.75;2082070;28;20528;-76
2022/10/06 05:40:04;;;;;;;6.32;1.30;;;;;;;21.40;49.67;101513.38;2092949;28;20055;-77
2022/10/06 05:41:29;;;;;;;6.32;1.10;;;;;;;21.35;49.65;101513.47;2078270;28;20535;-77
2022/10/06 05:42:55;;;;;;;9.32;2.63;;;;;;;21.35;49.81;101517.97;2084279;28;20483;-77
2022/10/06 05:44:18;;;;;;;5.13;1.38;;;;;;;21.33;49.96;101507.22;2100917;28;20503;-77
2022/10/06 05:45:41;;;;;;;5.00;1.45;;;;;;;21.30;49.67;101515.38;2088285;28;20037;-77
2022/10/06 05:47:04;;;;;;;6.32;1.20;;;;;;;21.31;49.56;101521.63;2083644;28;20413;-77
2022/10/06 05:48:28;;;;;;;4.40;1.20;;;;;;;21.34;49.66;101519.75;2083890;28;20029;-77
2022/10/06 05:49:50;;;;;;;7.57;1.33;;;;;;;21.42;49.71;101503.50;2082747;28;20114;-76
2022/10/06 05:51:12;;;;;;;4.63;1.35;;;;;;;21.57;49.80;101516.69;2095674;28;20041;-76
2022/10/06 05:52:35;;;;;;;5.60;1.10;;;;;;;21.82;49.55;101509.06;2096055;28;20037;-77
2022/10/06 05:53:56;;;;;;;6.25;1.13;;;;;;;22.11;49.10;101514.81;2088814;28;20123;-76
2022/10/06 05:55:19;;;;;;;9.05;1.85;;;;;;;22.36;48.77;101509.81;2096899;28;20475;-76
2022/10/06 05:56:41;;;;;;;6.95;1.75;;;;;;;22.57;48.28;101516.56;2095865;28;20086;-77
2022/10/06 05:58:03;;;;;;;7.80;1.50;;;;;;;22.65;48.15;101509.16;2085475;28;20048;-77
2022/10/06 05:59:27;;;;;;;3.75;1.27;;;;;;;22.72;47.74;101516.19;2083054;28;20150;-76
2022/10/06 06:00:51;;;;;;;5.38;1.58;;;;;;;22.77;47.59;101508.94;2085442;28;20083;-75
2022/10/06 06:02:14;;;;;;;7.13;1.00;;;;;;;22.81;47.64;101510.63;2084249;28;20052;-74
2022/10/06 06:03:38;;;;;;;7.65;1.50;;;;;;;22.76;47.62;101522.44;2086202;28;20115;-76
2022/10/06 06:05:01;;;;;;;5.95;1.50;;;;;;;22.65;47.76;101518.13;2088503;28;20049;-76
2022/10/06 06:06:24;;;;;;;9.30;1.30;;;;;;;22.60;48.12;101525.44;2093696;28;20131;-76
2022/10/06 06:07:48;;;;;;;8.13;1.50;;;;;;;22.55;48.33;101521.06;2093805;28;20045;-76
2022/10/06 06:09:12;;;;;;;8.23;1.50;;;;;;;22.51;48.34;101516.69;2084529;28;20082;-76
2022/10/06 06:10:37;;;;;;;5.03;1.23;;;;;;;22.48;48.48;101524.81;2099965;28;20286;-77
2022/10/06 06:11:58;;;;;;;5.25;1.05;;;;;;;22.42;48.53;101535.69;2087954;28;20044;-76
2022/10/06 06:13:26;;;;;;;6.18;1.27;;;;;;;22.34;48.50;101514.34;2083380;28;20072;-76
2022/10/06 06:16:45;;;;;;;5.70;1.40;;;;;;;22.33;48.81;101517.03;2087913;28;20524;-77
2022/10/06 06:18:06;;;;;;;5.10;1.00;;;;;;;22.33;48.96;101520.63;2083594;28;20045;-75
2022/10/06 06:19:29;;;;;;;5.35;0.98;;;;;;;22.35;48.92;101524.19;2091402;28;20124;-77
2022/10/06 06:20:57;;;;;;;7.63;1.45;;;;;;;22.45;49.05;101524.88;2088558;28;20059;-76
2022/10/06 06:22:20;;;;;;;3.50;1.05;;;;;;;22.61;48.91;101523.63;2085701;28;20049;-77
2022/10/06 06:23:45;;;;;;;8.68;1.83;;;;;;;22.63;48.80;101527.19;2086499;28;20172;-76
2022/10/06 06:25:11;;;;;;;11.68;1.38;;;;;;;22.76;48.69;101531.41;2086393;28;20598;-76
2022/10/06 06:26:37;;;;;;;6.38;1.20;;;;;;;23.07;48.65;101519.91;2084196;28;20041;-77
2022/10/06 06:28:00;;;;;;;7.20;1.40;;;;;;;23.39;48.06;101529.00;2078144;28;20076;-77
2022/10/06 06:29:22;;;;;;;5.07;1.02;;;;;;;23.52;47.55;101526.91;2087251;28;20045;-76
2022/10/06 06:30:46;;;;;;;6.07;1.05;;;;;;;23.50;46.84;101530.59;2091612;28;20203;-75
2022/10/06 06:32:09;;;;;;;9.38;1.50;;;;;;;23.41;47.00;101520.88;2091528;28;20102;-76
2022/10/06 06:33:30;;;;;;;4.97;0.98;;;;;;;23.36;47.01;101525.50;2085991;28;20139;-77